sensor_id;sensor_type;location;lat;lon;timestamp;pressure;altitude;pressure_sealevel;temperature;humidity
13732;BME280;6937;56.096;12.664;2022-07-23T00:01:27;104390.75;;;15.02;100.00
13732;BME280;6937;56.096;12.664;2022-07-23T00:03:54;104330.03;;;14.91;100.00
13732;BME280;6937;56.096;12.664;2022-07-23T00:06:21;104334.22;;;15.00;100.00
13732;BME280;6937;56.096;12.664;2022-07-23T00:08:46;104336.88;;;15.02;100.00
13732;BME280;6937;56.096;12.664;2022-07-23T00:11:12;104318.22;;;14.95;100.00
13732;BME280;6937;56.096;12.664;2022-07-23T00:13:37;104391.78;;;14.97;100.00
13732;BME280;6937;56.096;12.664;2022-07-23T00:16:03;104389.09;;;14.97;100.00
13732;BME280;6937;56.096;12.664;2022-07-23T00:18:28;104374.59;;;15.02;100.00
13732;BME280;6937;56.096;12.664;2022-07-23T00:20:54;104369.19;;;15.02;100.00
13732;BME280;6937;56.096;12.664;2022-07-23T00:23:19;104364.88;;;14.96;100.00
13732;BME280;6937;56.096;12.664;2022-07-23T00:25:44;104372.94;;;14.97;100.00
13732;BME280;6937;56.096;12.664;2022-07-23T00:28:10;104383.56;;;15.02;100.00
13732;BME280;6937;56.096;12.664;2022-07-23T00:30:36;104393.41;;;15.03;100.00
13732;BME280;6937;56.096;12.664;2022-07-23T00:33:04;104395.03;;;15.07;100.00
13732;BME280;6937;56.096;12.664;2022-07-23T00:35:32;104406.72;;;15.08;100.00
13732;BME280;6937;56.096;12.664;2022-07-23T00:37:59;104403.41;;;14.99;100.00
13732;BME280;6937;56.096;12.664;2022-07-23T00:40:26;104413.91;;;15.07;100.00
13732;BME280;6937;56.096;12.664;2022-07-23T00:42:52;104469.44;;;15.13;100.00
13732;BME280;6937;56.096;12.664;2022-07-23T00:45:17;104487.38;;;15.14;100.00
13732;BME280;6937;56.096;12.664;2022-07-23T00:47:43;104493.69;;;15.13;100.00
13732;BME280;6937;56.096;12.664;2022-07-23T00:50:09;104514.31;;;15.14;100.00
13732;BME280;6937;56.096;12.664;2022-07-23T00:52:36;104558.38;;;15.13;100.00
13732;BME280;6937;56.096;12.664;2022-07-23T00:55:04;104604.19;;;15.13;100.00
13732;BME280;6937;56.096;12.664;2022-07-23T00:57:29;104625.94;;;15.07;100.00
13732;BME280;6937;56.096;12.664;2022-07-23T00:59:55;104661.75;;;15.10;100.00
13732;BME280;6937;56.096;12.664;2022-07-23T01:02:21;104703.00;;;15.12;100.00
13732;BME280;6937;56.096;12.664;2022-07-23T01:04:46;104733.56;;;15.11;100.00
13732;BME280;6937;56.096;12.664;2022-07-23T01:07:12;104764.09;;;15.12;100.00
13732;BME280;6937;56.096;12.664;2022-07-23T01:09:38;104815.28;;;15.13;99.97
13732;BME280;6937;56.096;12.664;2022-07-23T01:12:03;104858.28;;;15.18;94.80
13732;BME280;6937;56.096;12.664;2022-07-23T01:14:30;104907.69;;;15.18;92.57
13732;BME280;6937;56.096;12.664;2022-07-23T01:16:55;104906.22;;;15.07;87.83
13732;BME280;6937;56.096;12.664;2022-07-23T01:19:21;104937.41;;;15.15;84.44
13732;BME280;6937;56.096;12.664;2022-07-23T01:21:48;104968.84;;;15.16;80.59
13732;BME280;6937;56.096;12.664;2022-07-23T01:24:14;104993.97;;;15.18;76.52
13732;BME280;6937;56.096;12.664;2022-07-23T01:26:43;105009.28;;;15.16;72.73
13732;BME280;6937;56.096;12.664;2022-07-23T01:29:09;105025.63;;;15.09;66.97
13732;BME280;6937;56.096;12.664;2022-07-23T01:31:35;105089.22;;;15.17;64.88
13732;BME280;6937;56.096;12.664;2022-07-23T01:34:01;105120.69;;;15.17;62.78
13732;BME280;6937;56.096;12.664;2022-07-23T01:36:26;105164.69;;;15.17;60.13
13732;BME280;6937;56.096;12.664;2022-07-23T01:38:52;105191.59;;;15.20;58.31
13732;BME280;6937;56.096;12.664;2022-07-23T01:41:17;105108.03;;;15.19;57.35
13732;BME280;6937;56.096;12.664;2022-07-23T01:43:43;104652.56;;;15.17;56.09
13732;BME280;6937;56.096;12.664;2022-07-23T01:46:08;104678.75;;;15.12;54.96
13732;BME280;6937;56.096;12.664;2022-07-23T01:48:34;104695.69;;;15.17;53.45
13732;BME280;6937;56.096;12.664;2022-07-23T01:51:00;104737.00;;;15.18;52.46
13732;BME280;6937;56.096;12.664;2022-07-23T01:53:25;104692.09;;;15.17;51.63
13732;BME280;6937;56.096;12.664;2022-07-23T01:55:50;104746.00;;;15.17;49.28
13732;BME280;6937;56.096;12.664;2022-07-23T01:58:16;104751.50;;;15.14;48.61
13732;BME280;6937;56.096;12.664;2022-07-23T02:00:41;104738.91;;;15.14;47.97
13732;BME280;6937;56.096;12.664;2022-07-23T02:03:06;104748.72;;;15.15;47.53
13732;BME280;6937;56.096;12.664;2022-07-23T02:05:32;104836.78;;;15.15;47.08
13732;BME280;6937;56.096;12.664;2022-07-23T02:07:58;104881.59;;;15.19;46.66
13732;BME280;6937;56.096;12.664;2022-07-23T02:10:25;105060.31;;;15.22;46.23
13732;BME280;6937;56.096;12.664;2022-07-23T02:12:50;105289.47;;;15.22;45.88
13732;BME280;6937;56.096;12.664;2022-07-23T02:15:16;105737.94;;;15.23;45.50
13732;BME280;6937;56.096;12.664;2022-07-23T02:17:41;105816.19;;;15.20;45.28
13732;BME280;6937;56.096;12.664;2022-07-23T02:20:07;105879.09;;;15.19;45.09
13732;BME280;6937;56.096;12.664;2022-07-23T02:22:33;105973.47;;;15.19;44.79
13732;BME280;6937;56.096;12.664;2022-07-23T02:24:59;106044.47;;;15.19;44.59
13732;BME280;6937;56.096;12.664;2022-07-23T02:27:24;106120.00;;;15.18;44.45
13732;BME280;6937;56.096;12.664;2022-07-23T02:29:50;106214.38;;;15.18;44.40
13732;BME280;6937;56.096;12.664;2022-07-23T02:32:15;106327.59;;;15.19;44.27
13732;BME280;6937;56.096;12.664;2022-07-23T02:34:41;106386.97;;;15.18;44.18
13732;BME280;6937;56.096;12.664;2022-07-23T02:37:06;106386.94;;;15.16;44.06
13732;BME280;6937;56.096;12.664;2022-07-23T02:39:35;106504.72;;;15.17;43.97
13732;BME280;6937;56.096;12.664;2022-07-23T02:42:00;106516.41;;;15.18;43.88
13732;BME280;6937;56.096;12.664;2022-07-23T02:44:26;106519.06;;;15.16;43.83
13732;BME280;6937;56.096;12.664;2022-07-23T02:46:51;106612.56;;;15.17;43.74
13732;BME280;6937;56.096;12.664;2022-07-23T02:49:16;106644.00;;;15.08;43.66
13732;BME280;6937;56.096;12.664;2022-07-23T02:51:42;106677.31;;;15.22;43.60
13732;BME280;6937;56.096;12.664;2022-07-23T02:54:08;106694.38;;;15.22;43.53
13732;BME280;6937;56.096;12.664;2022-07-23T02:56:33;106596.38;;;15.23;43.48
13732;BME280;6937;56.096;12.664;2022-07-23T02:58:58;106665.63;;;15.24;43.43
13732;BME280;6937;56.096;12.664;2022-07-23T03:01:24;106688.09;;;15.22;43.38
13732;BME280;6937;56.096;12.664;2022-07-23T03:03:49;106746.56;;;15.29;43.34
13732;BME280;6937;56.096;12.664;2022-07-23T03:06:14;106751.97;;;15.35;43.31
13732;BME280;6937;56.096;12.664;2022-07-23T03:08:40;106791.53;;;15.33;43.27
13732;BME280;6937;56.096;12.664;2022-07-23T03:11:05;106789.69;;;15.30;43.25
13732;BME280;6937;56.096;12.664;2022-07-23T03:13:39;106741.13;;;15.20;43.26
13732;BME280;6937;56.096;12.664;2022-07-23T03:16:04;106724.97;;;15.27;43.24
13732;BME280;6937;56.096;12.664;2022-07-23T03:18:30;106711.50;;;15.26;43.24
13732;BME280;6937;56.096;12.664;2022-07-23T03:20:55;106638.66;;;15.18;43.22
13732;BME280;6937;56.096;12.664;2022-07-23T03:23:21;106690.78;;;15.26;43.22
13732;BME280;6937;56.096;12.664;2022-07-23T03:25:46;106639.53;;;15.26;43.21
13732;BME280;6937;56.096;12.664;2022-07-23T03:28:17;106542.44;;;15.26;43.14
13732;BME280;6937;56.096;12.664;2022-07-23T03:30:46;106434.59;;;15.22;43.13
13732;BME280;6937;56.096;12.664;2022-07-23T03:33:16;106350.03;;;15.30;43.10
13732;BME280;6937;56.096;12.664;2022-07-23T03:35:45;106374.31;;;15.32;43.09
13732;BME280;6937;56.096;12.664;2022-07-23T03:38:11;106282.63;;;15.32;43.05
13732;BME280;6937;56.096;12.664;2022-07-23T03:40:37;106333.84;;;15.30;43.08
13732;BME280;6937;56.096;12.664;2022-07-23T03:43:03;106330.25;;;15.30;43.09
13732;BME280;6937;56.096;12.664;2022-07-23T03:45:28;106016.53;;;15.28;43.00
13732;BME280;6937;56.096;12.664;2022-07-23T03:47:54;106245.78;;;15.28;43.09
13732;BME280;6937;56.096;12.664;2022-07-23T03:50:19;106173.88;;;15.25;43.08
13732;BME280;6937;56.096;12.664;2022-07-23T03:52:45;106170.28;;;15.25;43.08
13732;BME280;6937;56.096;12.664;2022-07-23T03:55:10;106151.44;;;15.22;43.08
13732;BME280;6937;56.096;12.664;2022-07-23T03:57:36;106123.59;;;15.18;43.08
13732;BME280;6937;56.096;12.664;2022-07-23T04:00:04;106085.78;;;15.23;43.08
13732;BME280;6937;56.096;12.664;2022-07-23T04:02:31;106107.38;;;15.26;43.08
13732;BME280;6937;56.096;12.664;2022-07-23T04:04:56;106123.50;;;15.29;43.08
13732;BME280;6937;56.096;12.664;2022-07-23T04:07:21;106157.66;;;15.31;43.09
13732;BME280;6937;56.096;12.664;2022-07-23T04:09:47;106140.56;;;15.32;43.10
13732;BME280;6937;56.096;12.664;2022-07-23T04:12:13;106677.31;;;15.31;43.12
13732;BME280;6937;56.096;12.664;2022-07-23T04:14:38;106710.59;;;15.33;43.13
13732;BME280;6937;56.096;12.664;2022-07-23T04:17:03;106688.13;;;15.29;43.16
13732;BME280;6937;56.096;12.664;2022-07-23T04:19:29;106687.19;;;15.30;43.21
13732;BME280;6937;56.096;12.664;2022-07-23T04:21:55;106685.41;;;15.31;43.24
13732;BME280;6937;56.096;12.664;2022-07-23T04:24:21;106666.53;;;15.32;43.27
13732;BME280;6937;56.096;12.664;2022-07-23T04:26:46;106658.44;;;15.34;43.32
13732;BME280;6937;56.096;12.664;2022-07-23T04:29:11;106430.94;;;15.38;43.36
13732;BME280;6937;56.096;12.664;2022-07-23T04:31:37;106689.03;;;15.40;43.42
13732;BME280;6937;56.096;12.664;2022-07-23T04:34:02;106679.13;;;15.39;43.38
13732;BME280;6937;56.096;12.664;2022-07-23T04:36:28;106696.22;;;15.40;43.41
13732;BME280;6937;56.096;12.664;2022-07-23T04:38:54;106673.72;;;15.41;43.46
13732;BME280;6937;56.096;12.664;2022-07-23T04:41:20;106626.06;;;15.31;43.49
13732;BME280;6937;56.096;12.664;2022-07-23T04:43:45;106306.84;;;15.41;43.52
13732;BME280;6937;56.096;12.664;2022-07-23T04:46:11;106361.72;;;15.38;43.56
13732;BME280;6937;56.096;12.664;2022-07-23T04:48:36;106380.59;;;15.40;43.57
13732;BME280;6937;56.096;12.664;2022-07-23T04:51:02;106378.78;;;15.37;43.60
13732;BME280;6937;56.096;12.664;2022-07-23T04:53:28;106367.09;;;15.41;43.61
13732;BME280;6937;56.096;12.664;2022-07-23T04:55:54;106385.06;;;15.41;43.61
13732;BME280;6937;56.096;12.664;2022-07-23T04:58:19;106384.16;;;15.48;43.61
13732;BME280;6937;56.096;12.664;2022-07-23T05:00:45;106304.16;;;15.44;43.61
13732;BME280;6937;56.096;12.664;2022-07-23T05:03:11;106257.38;;;15.43;43.62
13732;BME280;6937;56.096;12.664;2022-07-23T05:05:36;106230.38;;;15.45;43.62
13732;BME280;6937;56.096;12.664;2022-07-23T05:08:02;106204.34;;;15.42;43.63
13732;BME280;6937;56.096;12.664;2022-07-23T05:10:27;106177.44;;;15.32;43.64
13732;BME280;6937;56.096;12.664;2022-07-23T05:12:53;106214.19;;;15.46;43.63
13732;BME280;6937;56.096;12.664;2022-07-23T05:15:18;106180.06;;;15.44;43.65
13732;BME280;6937;56.096;12.664;2022-07-23T05:17:43;106172.91;;;15.37;43.65
13732;BME280;6937;56.096;12.664;2022-07-23T05:20:09;106182.72;;;15.45;43.64
13732;BME280;6937;56.096;12.664;2022-07-23T05:22:34;105934.66;;;15.36;43.65
13732;BME280;6937;56.096;12.664;2022-07-23T05:25:00;105922.91;;;15.43;43.64
13732;BME280;6937;56.096;12.664;2022-07-23T05:27:25;105944.50;;;15.40;43.63
13732;BME280;6937;56.096;12.664;2022-07-23T05:29:51;105975.00;;;15.50;43.65
13732;BME280;6937;56.096;12.664;2022-07-23T05:32:16;105974.97;;;15.53;43.63
13732;BME280;6937;56.096;12.664;2022-07-23T05:34:41;106001.91;;;15.56;43.63
13732;BME280;6937;56.096;12.664;2022-07-23T05:37:07;105984.81;;;15.57;43.61
13732;BME280;6937;56.096;12.664;2022-07-23T05:39:32;105947.94;;;15.56;43.62
13732;BME280;6937;56.096;12.664;2022-07-23T05:41:58;105965.94;;;15.59;43.62
13732;BME280;6937;56.096;12.664;2022-07-23T05:44:23;105895.78;;;15.57;43.60
13732;BME280;6937;56.096;12.664;2022-07-23T05:46:48;105849.03;;;15.57;43.60
13732;BME280;6937;56.096;12.664;2022-07-23T05:49:14;105810.44;;;15.50;43.61
13732;BME280;6937;56.096;12.664;2022-07-23T05:51:39;105730.63;;;15.32;43.60
13732;BME280;6937;56.096;12.664;2022-07-23T05:54:05;105689.16;;;15.41;43.61
13732;BME280;6937;56.096;12.664;2022-07-23T05:56:30;105596.47;;;15.45;43.60
13732;BME280;6937;56.096;12.664;2022-07-23T05:58:55;105530.00;;;15.42;43.62
13732;BME280;6937;56.096;12.664;2022-07-23T06:01:21;105475.09;;;15.45;43.61
13732;BME280;6937;56.096;12.664;2022-07-23T06:03:46;105452.56;;;15.51;43.64
13732;BME280;6937;56.096;12.664;2022-07-23T06:06:11;105341.91;;;15.55;43.64
13732;BME280;6937;56.096;12.664;2022-07-23T06:08:37;105255.50;;;15.58;43.66
13732;BME280;6937;56.096;12.664;2022-07-23T06:11:02;105164.13;;;15.43;43.70
13732;BME280;6937;56.096;12.664;2022-07-23T06:13:28;105155.66;;;15.60;43.74
13732;BME280;6937;56.096;12.664;2022-07-23T06:15:53;105093.50;;;15.64;43.79
13732;BME280;6937;56.096;12.664;2022-07-23T06:18:18;105067.41;;;15.65;43.81
13732;BME280;6937;56.096;12.664;2022-07-23T06:20:44;104963.13;;;15.64;43.81
13732;BME280;6937;56.096;12.664;2022-07-23T06:23:09;104946.03;;;15.65;43.84
13732;BME280;6937;56.096;12.664;2022-07-23T06:25:35;104891.91;;;15.71;43.88
13732;BME280;6937;56.096;12.664;2022-07-23T06:28:00;104844.38;;;15.67;43.93
13732;BME280;6937;56.096;12.664;2022-07-23T06:30:26;104843.34;;;15.71;43.99
13732;BME280;6937;56.096;12.664;2022-07-23T06:32:51;104828.97;;;15.70;44.03
13732;BME280;6937;56.096;12.664;2022-07-23T06:35:17;104760.69;;;15.68;44.05
13732;BME280;6937;56.096;12.664;2022-07-23T06:37:42;104585.56;;;15.62;44.11
13732;BME280;6937;56.096;12.664;2022-07-23T06:40:08;104558.47;;;15.65;44.13
13732;BME280;6937;56.096;12.664;2022-07-23T06:42:34;104506.50;;;15.60;44.17
13732;BME280;6937;56.096;12.664;2022-07-23T06:45:03;104264.94;;;15.53;44.18
13732;BME280;6937;56.096;12.664;2022-07-23T06:47:28;104170.44;;;15.56;44.20
13732;BME280;6937;56.096;12.664;2022-07-23T06:49:54;104115.06;;;15.47;44.21
13732;BME280;6937;56.096;12.664;2022-07-23T06:52:19;104088.09;;;15.47;44.25
13732;BME280;6937;56.096;12.664;2022-07-23T06:54:44;104056.09;;;15.38;44.28
13732;BME280;6937;56.096;12.664;2022-07-23T06:57:10;104014.19;;;15.53;44.30
13732;BME280;6937;56.096;12.664;2022-07-23T06:59:35;103944.16;;;15.52;44.28
13732;BME280;6937;56.096;12.664;2022-07-23T07:02:05;103878.56;;;15.51;44.30
13732;BME280;6937;56.096;12.664;2022-07-23T07:04:31;103818.31;;;15.52;44.32
13732;BME280;6937;56.096;12.664;2022-07-23T07:06:57;103734.59;;;15.55;44.31
13732;BME280;6937;56.096;12.664;2022-07-23T07:09:22;103580.78;;;15.19;44.31
13732;BME280;6937;56.096;12.664;2022-07-23T07:11:48;103629.66;;;15.51;44.34
13732;BME280;6937;56.096;12.664;2022-07-23T07:14:13;103615.00;;;15.56;44.36
13732;BME280;6937;56.096;12.664;2022-07-23T07:16:38;103538.34;;;15.62;44.37
13732;BME280;6937;56.096;12.664;2022-07-23T07:19:04;103524.03;;;15.60;44.36
13732;BME280;6937;56.096;12.664;2022-07-23T07:21:29;103064.00;;;15.59;44.20
13732;BME280;6937;56.096;12.664;2022-07-23T07:23:54;103734.28;;;15.61;44.48
13732;BME280;6937;56.096;12.664;2022-07-23T07:26:20;103652.31;;;15.65;44.46
13732;BME280;6937;56.096;12.664;2022-07-23T07:28:45;103538.13;;;15.66;44.46
13732;BME280;6937;56.096;12.664;2022-07-23T07:31:11;103504.78;;;15.67;44.46
13732;BME280;6937;56.096;12.664;2022-07-23T07:33:36;103471.03;;;15.77;44.45
13732;BME280;6937;56.096;12.664;2022-07-23T07:36:02;103462.78;;;15.80;44.51
13732;BME280;6937;56.096;12.664;2022-07-23T07:38:28;103174.81;;;15.85;44.50
13732;BME280;6937;56.096;12.664;2022-07-23T07:40:53;103182.56;;;15.91;44.54
13732;BME280;6937;56.096;12.664;2022-07-23T07:43:18;102889.91;;;15.84;44.45
13732;BME280;6937;56.096;12.664;2022-07-23T07:45:44;102944.69;;;15.85;44.51
13732;BME280;6937;56.096;12.664;2022-07-23T07:48:09;103391.38;;;15.87;44.56
13732;BME280;6937;56.096;12.664;2022-07-23T07:50:35;103619.34;;;15.96;44.62
13732;BME280;6937;56.096;12.664;2022-07-23T07:53:00;103521.16;;;15.99;44.60
13732;BME280;6937;56.096;12.664;2022-07-23T07:55:25;103745.78;;;16.04;44.70
13732;BME280;6937;56.096;12.664;2022-07-23T07:57:52;103593.41;;;16.11;44.65
13732;BME280;6937;56.096;12.664;2022-07-23T08:00:17;103487.28;;;16.10;44.63
13732;BME280;6937;56.096;12.664;2022-07-23T08:02:45;103319.91;;;16.12;44.58
13732;BME280;6937;56.096;12.664;2022-07-23T08:05:11;103635.75;;;16.09;44.70
13732;BME280;6937;56.096;12.664;2022-07-23T08:07:37;103525.44;;;16.20;44.69
13732;BME280;6937;56.096;12.664;2022-07-23T08:10:05;103451.41;;;16.25;44.69
13732;BME280;6937;56.096;12.664;2022-07-23T08:12:41;104070.31;;;16.27;44.84
13732;BME280;6937;56.096;12.664;2022-07-23T08:15:07;102981.59;;;16.28;44.49
13732;BME280;6937;56.096;12.664;2022-07-23T08:17:33;104891.94;;;16.59;44.97
13732;BME280;6937;56.096;12.664;2022-07-23T08:19:58;105348.88;;;16.45;44.95
13732;BME280;6937;56.096;12.664;2022-07-23T08:22:24;105024.81;;;16.42;44.89
13732;BME280;6937;56.096;12.664;2022-07-23T08:24:49;104956.16;;;16.49;44.87
13732;BME280;6937;56.096;12.664;2022-07-23T08:27:14;104829.47;;;16.41;44.82
13732;BME280;6937;56.096;12.664;2022-07-23T08:29:40;104782.66;;;16.41;44.80
13732;BME280;6937;56.096;12.664;2022-07-23T08:32:05;104788.88;;;16.43;44.79
13732;BME280;6937;56.096;12.664;2022-07-23T08:34:31;104718.66;;;16.43;44.78
13732;BME280;6937;56.096;12.664;2022-07-23T08:36:56;104632.22;;;16.43;44.77
13732;BME280;6937;56.096;12.664;2022-07-23T08:39:21;104655.28;;;16.53;44.79
13732;BME280;6937;56.096;12.664;2022-07-23T08:41:47;104570.56;;;16.56;44.77
13732;BME280;6937;56.096;12.664;2022-07-23T08:44:15;104515.66;;;16.55;44.77
13732;BME280;6937;56.096;12.664;2022-07-23T08:46:41;104457.09;;;16.56;44.77
13732;BME280;6937;56.096;12.664;2022-07-23T08:49:07;104383.72;;;16.68;44.76
13732;BME280;6937;56.096;12.664;2022-07-23T08:51:33;104267.00;;;16.60;44.74
13732;BME280;6937;56.096;12.664;2022-07-23T08:54:00;104370.00;;;16.72;44.76
13732;BME280;6937;56.096;12.664;2022-07-23T08:56:25;104387.63;;;16.82;44.79
13732;BME280;6937;56.096;12.664;2022-07-23T08:58:54;103864.94;;;16.88;44.63
13732;BME280;6937;56.096;12.664;2022-07-23T09:01:19;105302.72;;;16.88;44.99
13732;BME280;6937;56.096;12.664;2022-07-23T09:03:45;104908.94;;;16.90;44.95
13732;BME280;6937;56.096;12.664;2022-07-23T09:06:10;104809.91;;;16.87;44.91
13732;BME280;6937;56.096;12.664;2022-07-23T09:08:40;104768.53;;;16.85;44.91
13732;BME280;6937;56.096;12.664;2022-07-23T09:11:08;104670.81;;;16.73;44.88
13732;BME280;6937;56.096;12.664;2022-07-23T09:13:41;104691.38;;;16.77;44.88
13732;BME280;6937;56.096;12.664;2022-07-23T09:16:11;104706.25;;;16.88;44.88
13732;BME280;6937;56.096;12.664;2022-07-23T09:18:53;104658.53;;;16.87;44.86
13732;BME280;6937;56.096;12.664;2022-07-23T09:21:31;104672.91;;;16.89;44.87
13732;BME280;6937;56.096;12.664;2022-07-23T09:24:00;104715.31;;;16.87;44.87
13732;BME280;6937;56.096;12.664;2022-07-23T09:26:27;104693.59;;;16.90;44.88
13732;BME280;6937;56.096;12.664;2022-07-23T09:29:00;104738.81;;;16.85;44.87
13732;BME280;6937;56.096;12.664;2022-07-23T09:31:53;104155.38;;;16.79;44.80
13732;BME280;6937;56.096;12.664;2022-07-23T09:34:20;104998.66;;;16.73;45.00
13732;BME280;6937;56.096;12.664;2022-07-23T09:36:47;105348.88;;;16.80;44.99
13732;BME280;6937;56.096;12.664;2022-07-23T09:39:14;105313.50;;;16.89;44.98
13732;BME280;6937;56.096;12.664;2022-07-23T09:41:42;105225.22;;;16.88;44.97
13732;BME280;6937;56.096;12.664;2022-07-23T09:44:19;105192.88;;;16.85;44.93
13732;BME280;6937;56.096;12.664;2022-07-23T09:46:47;105221.69;;;16.86;44.93
13732;BME280;6937;56.096;12.664;2022-07-23T09:51:44;105101.81;;;16.87;44.91
13732;BME280;6937;56.096;12.664;2022-07-23T09:54:22;105046.81;;;16.88;44.91
13732;BME280;6937;56.096;12.664;2022-07-23T09:56:51;105009.97;;;16.86;44.90
13732;BME280;6937;56.096;12.664;2022-07-23T09:59:17;104976.16;;;16.73;44.89
13732;BME280;6937;56.096;12.664;2022-07-23T10:01:44;104946.38;;;16.74;44.89
13732;BME280;6937;56.096;12.664;2022-07-23T10:04:11;104876.91;;;16.78;44.88
13732;BME280;6937;56.096;12.664;2022-07-23T10:06:39;104390.06;;;16.67;44.76
13732;BME280;6937;56.096;12.664;2022-07-23T10:09:04;104089.13;;;16.71;44.75
13732;BME280;6937;56.096;12.664;2022-07-23T10:11:31;104518.97;;;16.86;44.98
13732;BME280;6937;56.096;12.664;2022-07-23T10:13:58;104622.25;;;17.18;44.94
13732;BME280;6937;56.096;12.664;2022-07-23T10:16:25;104639.84;;;17.51;44.94
13732;BME280;6937;56.096;12.664;2022-07-23T10:18:51;104858.19;;;17.97;44.96
13732;BME280;6937;56.096;12.664;2022-07-23T10:21:25;104580.78;;;17.84;44.86
13732;BME280;6937;56.096;12.664;2022-07-23T10:26:38;104132.09;;;17.53;44.63
13732;BME280;6937;56.096;12.664;2022-07-23T10:29:22;104044.94;;;17.65;44.61
13732;BME280;6937;56.096;12.664;2022-07-23T10:35:18;103865.16;;;17.36;44.50
13732;BME280;6937;56.096;12.664;2022-07-23T10:37:54;103903.25;;;17.49;44.48
13732;BME280;6937;56.096;12.664;2022-07-23T10:40:22;103854.75;;;17.46;44.45
13732;BME280;6937;56.096;12.664;2022-07-23T10:42:50;103941.47;;;17.43;44.49
13732;BME280;6937;56.096;12.664;2022-07-23T10:47:51;104032.06;;;17.52;44.54
13732;BME280;6937;56.096;12.664;2022-07-23T10:50:24;104019.16;;;17.58;44.55
13732;BME280;6937;56.096;12.664;2022-07-23T10:53:15;103983.81;;;17.61;44.57
13732;BME280;6937;56.096;12.664;2022-07-23T10:55:45;104070.91;;;17.69;44.61
13732;BME280;6937;56.096;12.664;2022-07-23T10:58:12;104057.00;;;17.77;44.60
13732;BME280;6937;56.096;12.664;2022-07-23T11:00:43;103997.19;;;17.81;44.63
13732;BME280;6937;56.096;12.664;2022-07-23T11:03:29;103945.88;;;17.80;44.67
13732;BME280;6937;56.096;12.664;2022-07-23T11:05:55;103862.94;;;17.79;44.69
13732;BME280;6937;56.096;12.664;2022-07-23T11:08:20;103871.88;;;17.97;44.74
13732;BME280;6937;56.096;12.664;2022-07-23T11:10:47;103938.59;;;18.48;44.77
13732;BME280;6937;56.096;12.664;2022-07-23T11:13:40;103892.91;;;18.57;44.87
13732;BME280;6937;56.096;12.664;2022-07-23T11:24:05;104082.25;;;18.29;46.23
13732;BME280;6937;56.096;12.664;2022-07-23T11:34:48;104341.06;;;18.34;48.54
13732;BME280;6937;56.096;12.664;2022-07-23T11:37:34;104333.69;;;18.38;49.65
13732;BME280;6937;56.096;12.664;2022-07-23T11:40:01;104423.59;;;18.46;50.73
13732;BME280;6937;56.096;12.664;2022-07-23T11:42:27;104386.69;;;18.44;52.29
13732;BME280;6937;56.096;12.664;2022-07-23T11:44:53;104442.28;;;18.52;53.58
13732;BME280;6937;56.096;12.664;2022-07-23T11:47:23;104368.53;;;18.46;55.76
13732;BME280;6937;56.096;12.664;2022-07-23T11:49:57;104342.47;;;18.62;57.85
13732;BME280;6937;56.096;12.664;2022-07-23T11:52:23;104327.16;;;18.61;59.96
13732;BME280;6937;56.096;12.664;2022-07-23T11:54:57;104272.25;;;18.57;63.46
13732;BME280;6937;56.096;12.664;2022-07-23T11:57:30;104295.31;;;18.66;67.04
13732;BME280;6937;56.096;12.664;2022-07-23T12:00:11;104177.25;;;18.60;72.21
13732;BME280;6937;56.096;12.664;2022-07-23T12:02:42;104209.75;;;18.60;78.49
13732;BME280;6937;56.096;12.664;2022-07-23T12:05:11;104181.78;;;18.60;83.01
13732;BME280;6937;56.096;12.664;2022-07-23T12:07:39;104047.28;;;18.24;90.88
13732;BME280;6937;56.096;12.664;2022-07-23T12:12:50;104123.63;;;17.97;93.73
13732;BME280;6937;56.096;12.664;2022-07-23T12:15:21;104206.97;;;17.90;88.02
13732;BME280;6937;56.096;12.664;2022-07-23T12:17:48;104353.09;;;17.92;80.29
13732;BME280;6937;56.096;12.664;2022-07-23T12:20:16;104511.03;;;17.91;73.80
13732;BME280;6937;56.096;12.664;2022-07-23T12:22:45;104752.09;;;17.88;67.97
13732;BME280;6937;56.096;12.664;2022-07-23T12:27:37;104900.13;;;17.85;60.65
13732;BME280;6937;56.096;12.664;2022-07-23T12:30:16;104939.97;;;17.82;58.17
13732;BME280;6937;56.096;12.664;2022-07-23T12:32:46;104913.78;;;17.82;56.12
13732;BME280;6937;56.096;12.664;2022-07-23T12:35:12;104785.75;;;17.80;54.89
13732;BME280;6937;56.096;12.664;2022-07-23T12:37:40;104371.25;;;17.69;53.89
13732;BME280;6937;56.096;12.664;2022-07-23T12:40:20;103987.09;;;17.68;52.30
13732;BME280;6937;56.096;12.664;2022-07-23T12:42:47;103690.00;;;17.74;51.03
13732;BME280;6937;56.096;12.664;2022-07-23T12:45:13;103469.03;;;17.75;50.36
13732;BME280;6937;56.096;12.664;2022-07-23T12:47:57;103358.69;;;17.80;49.48
13732;BME280;6937;56.096;12.664;2022-07-23T12:50:54;103316.47;;;17.92;48.78
13732;BME280;6937;56.096;12.664;2022-07-23T12:53:27;103276.66;;;17.94;48.41
13732;BME280;6937;56.096;12.664;2022-07-23T12:56:06;103293.38;;;18.14;47.89
13732;BME280;6937;56.096;12.664;2022-07-23T13:01:10;102970.44;;;18.00;47.95
13732;BME280;6937;56.096;12.664;2022-07-23T13:03:38;102924.44;;;18.00;48.06
13732;BME280;6937;56.096;12.664;2022-07-23T13:06:07;102914.16;;;18.05;48.09
13732;BME280;6937;56.096;12.664;2022-07-23T13:08:35;102835.34;;;18.09;48.49
13732;BME280;6937;56.096;12.664;2022-07-23T13:11:01;102767.78;;;18.08;48.72
13732;BME280;6937;56.096;12.664;2022-07-23T13:13:29;102733.25;;;18.11;48.88
13732;BME280;6937;56.096;12.664;2022-07-23T13:15:55;102685.06;;;18.16;49.09
13732;BME280;6937;56.096;12.664;2022-07-23T13:18:21;102647.00;;;18.07;49.45
13732;BME280;6937;56.096;12.664;2022-07-23T13:20:47;102568.00;;;18.02;49.71
13732;BME280;6937;56.096;12.664;2022-07-23T13:23:14;102554.22;;;18.05;49.82
13732;BME280;6937;56.096;12.664;2022-07-23T13:25:40;102493.00;;;18.15;49.89